Time;durP1;ratioP1;P1;durP2;ratioP2;P2;SDS_P1;SDS_P2;PMS_P1;PMS_P2;Temp;Humidity;BMP_temperature;BMP_pressure;BME280_temperature;BME280_humidity;BME280_pressure;Samples;Min_cycle;Max_cycle;Signal;HPM_P1;HPM_P2
2023/08/23 00:01:37;;;;;;;10.57;9.10;;;;;;;-145.33;100.00;60416.63;4966887;28;20867;-22
2023/08/23 00:04:02;;;;;;;11.38;9.52;;;;;;;-145.33;100.00;60416.63;4966360;28;20594;-22
2023/08/23 00:06:28;;;;;;;13.38;9.48;;;;;;;-145.33;100.00;60416.63;4966635;28;20110;-24
2023/08/23 00:08:53;;;;;;;11.95;9.38;;;;;;;-145.33;100.00;60416.63;4966489;28;20053;-22
2023/08/23 00:11:19;;;;;;;11.88;9.18;;;;;;;-145.33;100.00;60416.63;4966624;28;20039;-23
2023/08/23 00:13:45;;;;;;;15.43;10.35;;;;;;;-145.33;100.00;60416.63;4966603;28;20035;-29
2023/08/23 00:16:11;;;;;;;12.70;10.35;;;;;;;-145.33;100.00;60416.63;4966677;28;20023;-22
2023/08/23 00:18:38;;;;;;;13.38;9.25;;;;;;;-145.33;100.00;60416.63;4966709;28;20423;-23
2023/08/23 00:21:04;;;;;;;12.60;9.25;;;;;;;-145.33;100.00;60416.63;4966040;28;20925;-22
2023/08/23 00:23:29;;;;;;;12.05;10.07;;;;;;;-145.33;100.00;60416.63;4966591;28;20041;-22
2023/08/23 00:25:55;;;;;;;15.68;9.40;;;;;;;-145.33;100.00;60416.63;4948598;28;20046;-22
2023/08/23 00:28:22;;;;;;;14.80;9.93;;;;;;;-145.33;100.00;60416.63;4966312;28;20649;-22
2023/08/23 00:30:52;;;;;;;13.10;10.13;;;;;;;-145.33;100.00;60416.63;4966671;28;20019;-23
2023/08/23 00:33:18;;;;;;;22.88;13.23;;;;;;;-145.33;100.00;60416.63;4966429;28;20026;-22
2023/08/23 00:35:46;;;;;;;20.33;13.15;;;;;;;-145.33;100.00;60416.63;4965920;28;20041;-23
2023/08/23 00:38:12;;;;;;;20.05;12.63;;;;;;;-145.33;100.00;60416.63;4966639;28;20038;-22
2023/08/23 00:40:39;;;;;;;20.75;12.18;;;;;;;-145.33;100.00;60416.63;4966045;28;20140;-22
2023/08/23 00:43:07;;;;;;;16.50;12.05;;;;;;;-145.33;100.00;60416.63;4966279;28;20076;-23
2023/08/23 00:45:39;;;;;;;15.80;11.40;;;;;;;-145.33;100.00;60416.63;4965910;28;20121;-23
2023/08/23 00:48:05;;;;;;;13.02;11.40;;;;;;;-145.33;100.00;60416.63;4969493;28;20110;-23
2023/08/23 00:50:34;;;;;;;16.05;10.93;;;;;;;-145.33;100.00;60416.63;4970132;28;20031;-23
2023/08/23 00:53:02;;;;;;;50.40;12.73;;;;;;;-145.33;100.00;60416.63;4969805;28;20035;-23
2023/08/23 00:55:27;;;;;;;;;;;;;;;-145.33;100.00;60416.63;4970111;28;20439;-22
2023/08/23 00:57:55;;;;;;;13.23;10.45;;;;;;;-145.33;100.00;60416.63;4969800;28;20382;-23
2023/08/23 01:00:20;;;;;;;;;;;;;;;-145.33;100.00;60416.63;4969850;28;20760;-34
2023/08/23 01:02:46;;;;;;;14.43;10.15;;;;;;;-145.33;100.00;60416.63;4969804;28;20444;-23
2023/08/23 01:05:15;;;;;;;12.48;10.20;;;;;;;-145.33;100.00;60416.63;4969636;28;20027;-22
2023/08/23 01:08:00;;;;;;;15.20;10.77;;;;;;;-145.33;100.00;60416.63;4969300;28;20043;-23
2023/08/23 01:10:49;;;;;;;12.82;10.40;;;;;;;-145.33;100.00;60416.63;4969465;28;20561;-23
2023/08/23 01:13:31;;;;;;;14.10;10.75;;;;;;;-145.33;100.00;60416.63;4969266;28;20037;-22
2023/08/23 01:15:58;;;;;;;14.60;10.18;;;;;;;-145.33;100.00;60416.63;4969136;28;20054;-22
2023/08/23 01:18:24;;;;;;;14.40;11.30;;;;;;;-145.33;100.00;60416.63;4969028;28;20027;-23
2023/08/23 01:20:54;;;;;;;13.63;11.20;;;;;;;-145.33;100.00;60416.63;4969369;28;20130;-23
2023/08/23 01:23:23;;;;;;;15.55;10.73;;;;;;;-145.33;100.00;60416.63;4969428;28;20105;-22
2023/08/23 01:25:52;;;;;;;16.30;11.45;;;;;;;-145.33;100.00;60416.63;4969297;28;20043;-24
2023/08/23 01:28:19;;;;;;;15.80;11.07;;;;;;;-145.33;100.00;60416.63;4969191;28;20042;-23
2023/08/23 01:30:55;;;;;;;15.83;11.70;;;;;;;-145.33;100.00;60416.63;4969100;28;20395;-23
2023/08/23 01:33:26;;;;;;;16.15;10.52;;;;;;;-145.33;100.00;60416.63;4969418;28;20293;-22
2023/08/23 01:36:00;;;;;;;13.05;10.07;;;;;;;-145.33;100.00;60416.63;4968592;28;20029;-27
2023/08/23 01:38:26;;;;;;;16.88;10.88;;;;;;;-145.33;100.00;60416.63;4968970;28;20026;-23
2023/08/23 01:40:53;;;;;;;12.20;10.35;;;;;;;-145.33;100.00;60416.63;4951443;28;20038;-24
2023/08/23 01:43:18;;;;;;;16.35;11.20;;;;;;;-145.33;100.00;60416.63;4968852;28;20026;-22
2023/08/23 01:45:43;;;;;;;12.25;10.88;;;;;;;-145.33;100.00;60416.63;4969377;28;20302;-22
2023/08/23 01:48:09;;;;;;;16.40;11.15;;;;;;;-145.33;100.00;60416.63;4969195;28;20038;-23
2023/08/23 01:50:34;;;;;;;12.23;10.40;;;;;;;-145.33;100.00;60416.63;4968483;28;20030;-23
2023/08/23 01:53:00;;;;;;;17.52;11.05;;;;;;;-145.33;100.00;60416.63;4968830;28;20058;-22
2023/08/23 01:55:25;;;;;;;12.65;11.20;;;;;;;-145.33;100.00;60416.63;4968649;28;20039;-23
2023/08/23 01:57:51;;;;;;;14.63;10.73;;;;;;;-145.33;100.00;60416.63;4968471;28;20490;-24
2023/08/23 02:00:16;;;;;;;12.30;11.00;;;;;;;-145.33;100.00;60416.63;4968419;28;20486;-23
2023/08/23 02:02:42;;;;;;;13.40;10.57;;;;;;;-145.33;100.00;60416.63;4968690;28;20034;-22
2023/08/23 02:05:07;;;;;;;13.32;10.70;;;;;;;-145.33;100.00;60416.63;4968620;28;20178;-25
2023/08/23 02:07:33;;;;;;;15.73;11.48;;;;;;;-145.33;100.00;60416.63;4968114;28;20154;-23
2023/08/23 02:09:58;;;;;;;17.77;12.85;;;;;;;-145.33;100.00;60416.63;4968384;28;20510;-23
2023/08/23 02:12:24;;;;;;;14.55;11.88;;;;;;;-145.33;100.00;60416.63;4968433;28;20058;-23
2023/08/23 02:14:49;;;;;;;17.40;12.73;;;;;;;-145.33;100.00;60416.63;4977508;28;20054;-26
2023/08/23 02:17:15;;;;;;;15.18;12.07;;;;;;;-145.33;100.00;60416.63;5007426;28;20096;-22
2023/08/23 02:19:40;;;;;;;16.30;12.05;;;;;;;-145.33;100.00;60416.63;5006679;28;20028;-23
2023/08/23 02:22:05;;;;;;;18.60;13.93;;;;;;;-145.33;100.00;60416.63;5007176;28;20022;-22
2023/08/23 02:24:33;;;;;;;15.40;11.88;;;;;;;-145.33;100.00;60416.63;5007157;28;20441;-23
2023/08/23 02:26:59;;;;;;;14.80;11.63;;;;;;;-145.33;100.00;60416.63;5007089;28;20034;-23
2023/08/23 02:29:24;;;;;;;16.95;12.82;;;;;;;-145.33;100.00;60416.63;5006902;28;20084;-22
2023/08/23 02:31:50;;;;;;;19.25;13.07;;;;;;;-145.33;100.00;60416.63;5006742;28;20022;-24
2023/08/23 02:34:17;;;;;;;16.45;12.52;;;;;;;-145.33;100.00;60416.63;5006623;28;20026;-25
2023/08/23 02:36:43;;;;;;;16.10;11.52;;;;;;;-145.33;100.00;60416.63;5006900;28;20043;-22
2023/08/23 02:39:08;;;;;;;16.98;12.55;;;;;;;-145.33;100.00;60416.63;5006519;28;20033;-22
2023/08/23 02:41:34;;;;;;;18.98;12.32;;;;;;;-145.33;100.00;60416.63;5006944;28;20714;-22
2023/08/23 02:43:59;;;;;;;15.25;12.25;;;;;;;-145.33;100.00;60416.63;5006699;28;20073;-23
2023/08/23 02:46:25;;;;;;;15.93;12.32;;;;;;;-145.33;100.00;60416.63;5006488;28;20064;-23
2023/08/23 02:48:52;;;;;;;15.00;12.15;;;;;;;-145.33;100.00;60416.63;5006335;28;20061;-22
2023/08/23 02:51:18;;;;;;;15.73;12.00;;;;;;;-145.33;100.00;60416.63;5006459;28;20039;-25
2023/08/23 02:53:43;;;;;;;15.35;11.80;;;;;;;-145.33;100.00;60416.63;5006187;28;20026;-23
2023/08/23 02:56:09;;;;;;;13.68;11.63;;;;;;;-145.33;100.00;60416.63;5006590;28;20029;-22
2023/08/23 02:58:34;;;;;;;16.77;12.43;;;;;;;-145.33;100.00;60416.63;5006149;28;20080;-22
2023/08/23 03:01:01;;;;;;;18.13;12.27;;;;;;;-145.33;100.00;60416.63;5006278;28;20038;-22
2023/08/23 03:03:26;;;;;;;16.25;12.98;;;;;;;-145.33;100.00;60416.63;5006302;28;20033;-23
2023/08/23 03:05:56;;;;;;;22.05;13.30;;;;;;;-145.33;100.00;60416.63;5005984;28;20030;-24
2023/08/23 03:08:25;;;;;;;15.13;12.10;;;;;;;-145.33;100.00;60416.63;5005811;28;20038;-22
2023/08/23 03:10:51;;;;;;;15.55;12.85;;;;;;;-145.33;100.00;60416.63;5005847;28;20028;-23
2023/08/23 03:13:17;;;;;;;13.95;12.45;;;;;;;-145.33;100.00;60416.63;5006243;28;20029;-24
2023/08/23 03:15:42;;;;;;;15.35;13.20;;;;;;;-145.33;100.00;60416.63;5006201;28;20045;-22
2023/08/23 03:18:09;;;;;;;16.13;13.57;;;;;;;-145.33;100.00;60416.63;5006040;28;20486;-22
2023/08/23 03:20:34;;;;;;;18.90;13.13;;;;;;;-145.33;100.00;60416.63;5006182;28;20029;-22
2023/08/23 03:23:00;;;;;;;14.60;13.00;;;;;;;-145.33;100.00;60416.63;5006047;28;20053;-23
2023/08/23 03:25:25;;;;;;;17.65;13.18;;;;;;;-145.33;100.00;60416.63;5006102;28;20029;-23
2023/08/23 03:27:54;;;;;;;19.15;13.00;;;;;;;-145.33;100.00;60416.63;5005829;28;20123;-22
2023/08/23 03:30:20;;;;;;;16.10;12.60;;;;;;;-145.33;100.00;60416.63;5006002;28;20063;-22
2023/08/23 03:32:45;;;;;;;16.95;14.45;;;;;;;-145.33;100.00;60416.63;5006120;28;20037;-22
2023/08/23 03:35:11;;;;;;;18.58;13.20;;;;;;;-145.33;100.00;60416.63;5005454;28;20061;-23
2023/08/23 03:37:36;;;;;;;18.58;13.63;;;;;;;-145.33;100.00;60416.63;5005809;28;20095;-22
2023/08/23 03:40:02;;;;;;;19.83;13.88;;;;;;;-145.33;100.00;60416.63;5005695;28;20050;-22
2023/08/23 03:42:28;;;;;;;26.83;15.00;;;;;;;-145.33;100.00;60416.63;5005952;28;20089;-22
2023/08/23 03:44:53;;;;;;;26.55;13.90;;;;;;;-145.33;100.00;60416.63;5005998;28;20029;-22
2023/08/23 03:47:19;;;;;;;21.33;12.90;;;;;;;-145.33;100.00;60416.63;5005634;28;20034;-23
2023/08/23 03:49:44;;;;;;;24.60;14.15;;;;;;;-145.33;100.00;60416.63;5006098;28;20421;-22
2023/08/23 03:52:09;;;;;;;29.27;14.43;;;;;;;-145.33;100.00;60416.63;5005611;28;20065;-22
2023/08/23 03:54:35;;;;;;;26.25;14.88;;;;;;;-145.33;100.00;60416.63;5005534;28;20041;-25
2023/08/23 03:57:00;;;;;;;22.92;14.57;;;;;;;-145.33;100.00;60416.63;5005760;28;20521;-22
2023/08/23 03:59:26;;;;;;;24.58;14.57;;;;;;;-145.33;100.00;60416.63;5005084;28;20030;-23
2023/08/23 04:01:51;;;;;;;23.27;14.02;;;;;;;-145.33;100.00;60416.63;5005445;28;20169;-24
2023/08/23 04:04:17;;;;;;;31.50;14.27;;;;;;;-145.33;100.00;60416.63;5005956;28;20030;-22
2023/08/23 04:06:42;;;;;;;24.63;14.63;;;;;;;-145.33;100.00;60416.63;5005607;28;20030;-24
2023/08/23 04:09:08;;;;;;;34.58;15.23;;;;;;;-145.33;100.00;60416.63;5005013;28;20788;-22
2023/08/23 04:11:34;;;;;;;23.45;14.75;;;;;;;-145.33;100.00;60416.63;5005323;28;20030;-22
2023/08/23 04:13:59;;;;;;;21.15;15.07;;;;;;;-145.33;100.00;60416.63;5005862;28;20038;-22
2023/08/23 04:16:27;;;;;;;19.77;14.40;;;;;;;-145.33;100.00;60416.63;5005104;28;20076;-22
2023/08/23 04:18:54;;;;;;;16.23;13.73;;;;;;;-145.33;100.00;60416.63;5005414;28;20080;-21
2023/08/23 04:21:19;;;;;;;22.47;15.27;;;;;;;-145.33;100.00;60416.63;5006613;28;20112;-25
2023/08/23 04:23:45;;;;;;;19.58;14.60;;;;;;;-145.33;100.00;60416.63;5009271;28;20137;-23
2023/08/23 04:26:10;;;;;;;17.92;14.40;;;;;;;-145.33;100.00;60416.63;5009498;28;20056;-22
2023/08/23 04:28:37;;;;;;;19.58;13.98;;;;;;;-145.33;100.00;60416.63;5008996;28;20065;-22
2023/08/23 04:31:03;;;;;;;20.65;14.00;;;;;;;-145.33;100.00;60416.63;5008877;28;20026;-22
2023/08/23 04:33:28;;;;;;;17.23;14.18;;;;;;;-145.33;100.00;60416.63;5009013;28;20710;-23
2023/08/23 04:35:54;;;;;;;25.02;15.75;;;;;;;-145.33;100.00;60416.63;5008905;28;20034;-24
2023/08/23 04:38:19;;;;;;;25.63;16.33;;;;;;;-145.33;100.00;60416.63;5009236;28;20033;-28
2023/08/23 04:40:45;;;;;;;19.55;15.98;;;;;;;-145.33;100.00;60416.63;5009033;28;20029;-25
2023/08/23 04:43:10;;;;;;;16.35;14.43;;;;;;;-145.33;100.00;60416.63;5008830;28;20033;-22
2023/08/23 04:45:37;;;;;;;17.92;15.93;;;;;;;-145.33;100.00;60416.63;5008942;28;20034;-22
2023/08/23 04:48:03;;;;;;;19.73;16.25;;;;;;;-145.33;100.00;60416.63;5008715;28;20033;-23
2023/08/23 04:50:29;;;;;;;22.98;16.48;;;;;;;-145.33;100.00;60416.63;5008736;28;20038;-25
2023/08/23 04:52:55;;;;;;;20.77;16.15;;;;;;;-145.33;100.00;60416.63;5008492;28;20026;-24
2023/08/23 04:55:20;;;;;;;18.45;15.57;;;;;;;-145.33;100.00;60416.63;5008690;28;20095;-27
2023/08/23 04:57:46;;;;;;;17.30;14.73;;;;;;;-145.33;100.00;60416.63;5008814;28;20026;-24
2023/08/23 05:00:13;;;;;;;16.90;15.10;;;;;;;-145.33;100.00;60416.63;5008381;28;20030;-22
2023/08/23 05:02:38;;;;;;;48.33;17.05;;;;;;;-145.33;100.00;60416.63;5008880;28;20022;-22
2023/08/23 05:05:08;;;;;;;17.63;14.23;;;;;;;-145.33;100.00;60416.63;4990871;28;20056;-22
2023/08/23 05:07:38;;;;;;;18.15;14.43;;;;;;;-145.33;100.00;60416.63;5008302;28;20457;-22
2023/08/23 05:10:04;;;;;;;16.02;14.13;;;;;;;-145.33;100.00;60416.63;5008383;28;20029;-22
2023/08/23 05:12:32;;;;;;;18.20;14.43;;;;;;;-145.33;100.00;60416.63;5008409;28;20036;-22
2023/08/23 05:14:57;;;;;;;20.10;14.95;;;;;;;-145.33;100.00;60416.63;5007817;28;20037;-23
2023/08/23 05:17:22;;;;;;;16.73;13.63;;;;;;;-145.33;100.00;60416.63;5008425;28;20037;-23
2023/08/23 05:19:48;;;;;;;15.93;14.20;;;;;;;-145.33;100.00;60416.63;5007913;28;20521;-25
2023/08/23 05:22:13;;;;;;;21.15;14.20;;;;;;;-145.33;100.00;60416.63;5008482;28;20014;-23
2023/08/23 05:24:39;;;;;;;19.55;15.45;;;;;;;-145.33;100.00;60416.63;5008053;28;20033;-23
2023/08/23 05:27:07;;;;;;;16.75;14.70;;;;;;;-145.33;100.00;60416.63;5008309;28;20658;-23
2023/08/23 05:29:32;;;;;;;19.45;14.45;;;;;;;-145.33;100.00;60416.63;5007795;28;20033;-23
2023/08/23 05:31:57;;;;;;;19.20;13.63;;;;;;;-145.33;100.00;60416.63;5007413;28;20026;-22
2023/08/23 05:34:23;;;;;;;17.73;14.07;;;;;;;-145.33;100.00;60416.63;5008394;28;20069;-23
2023/08/23 05:36:49;;;;;;;18.92;14.52;;;;;;;-145.33;100.00;60416.63;5008148;28;20095;-23
2023/08/23 05:39:14;;;;;;;16.95;15.18;;;;;;;-145.33;100.00;60416.63;5008055;28;20111;-22
2023/08/23 05:41:39;;;;;;;18.15;14.60;;;;;;;-145.33;100.00;60416.63;5007944;28;20113;-22
2023/08/23 05:44:05;;;;;;;16.52;14.10;;;;;;;-145.33;100.00;60416.63;5007777;28;20111;-22
2023/08/23 05:46:30;;;;;;;16.45;14.40;;;;;;;-145.33;100.00;60416.63;5007886;28;20064;-25
2023/08/23 05:48:56;;;;;;;16.15;14.35;;;;;;;-145.33;100.00;60416.63;5007931;28;20030;-22
2023/08/23 05:51:21;;;;;;;17.10;12.82;;;;;;;-145.33;100.00;60416.63;5007565;28;20049;-22
2023/08/23 05:53:47;;;;;;;17.30;12.98;;;;;;;-145.33;100.00;60416.63;5007688;28;20054;-23
2023/08/23 05:56:12;;;;;;;16.40;13.48;;;;;;;-145.33;100.00;60416.63;5007487;28;20022;-23
2023/08/23 05:58:37;;;;;;;16.45;13.07;;;;;;;-145.33;100.00;60416.63;5007503;28;20026;-22
2023/08/23 06:01:03;;;;;;;15.25;12.60;;;;;;;-145.33;100.00;60416.63;5007526;28;20029;-22
2023/08/23 06:03:28;;;;;;;18.52;13.20;;;;;;;-145.33;100.00;60416.63;5007335;28;20022;-24
2023/08/23 06:05:55;;;;;;;18.88;17.20;;;;;;;-145.33;100.00;60416.63;5007768;28;20030;-22
2023/08/23 06:08:20;;;;;;;17.30;13.63;;;;;;;-145.33;100.00;60416.63;4987517;28;20835;-24
2023/08/23 06:10:46;;;;;;;16.92;15.13;;;;;;;-145.33;100.00;60416.63;4986954;28;20041;-24
2023/08/23 06:13:11;;;;;;;17.08;15.40;;;;;;;-145.33;100.00;60416.63;4986910;28;20054;-24
2023/08/23 06:15:37;;;;;;;16.63;13.27;;;;;;;-145.33;100.00;60416.63;4985667;28;20028;-22
2023/08/23 06:18:03;;;;;;;17.00;13.32;;;;;;;-145.33;100.00;60416.63;4987193;28;20030;-24
2023/08/23 06:20:28;;;;;;;17.90;13.85;;;;;;;-145.33;100.00;60416.63;4987188;28;20026;-23
2023/08/23 06:22:58;;;;;;;20.05;15.30;;;;;;;-145.33;100.00;60416.63;4987014;28;20098;-23
2023/08/23 06:25:23;;;;;;;18.83;13.20;;;;;;;-145.33;100.00;60416.63;4986691;28;20498;-23
2023/08/23 06:27:49;;;;;;;15.73;13.88;;;;;;;-145.33;100.00;60416.63;4986938;28;20027;-23
2023/08/23 06:30:17;;;;;;;14.40;12.77;;;;;;;-145.33;100.00;60416.63;4987352;28;20010;-24
2023/08/23 06:32:47;;;;;;;15.65;14.00;;;;;;;-145.33;100.00;60416.63;4986776;28;20045;-23
2023/08/23 06:35:13;;;;;;;18.13;12.52;;;;;;;-145.33;100.00;60416.63;4987039;28;20034;-23
2023/08/23 06:37:39;;;;;;;14.63;12.43;;;;;;;-145.33;100.00;60416.63;4986606;28;20113;-23
2023/08/23 06:40:11;;;;;;;14.30;12.48;;;;;;;-145.33;100.00;60416.63;4986132;28;20068;-23
2023/08/23 06:42:37;;;;;;;13.13;11.60;;;;;;;-145.33;100.00;60416.63;4986840;28;20022;-26
2023/08/23 06:45:03;;;;;;;13.32;11.13;;;;;;;-145.33;100.00;60416.63;4985962;28;20022;-23
2023/08/23 06:47:28;;;;;;;12.43;11.20;;;;;;;-145.33;100.00;60416.63;4986435;28;20496;-23
2023/08/23 06:49:56;;;;;;;13.48;11.82;;;;;;;-145.33;100.00;60416.63;4986234;28;20033;-23
2023/08/23 06:52:21;;;;;;;15.65;11.57;;;;;;;-145.33;100.00;60416.63;4985997;28;20573;-25
2023/08/23 06:54:47;;;;;;;14.95;11.77;;;;;;;-145.33;100.00;60416.63;4987125;28;20493;-24
2023/08/23 06:57:15;;;;;;;16.88;11.38;;;;;;;-145.33;100.00;60416.63;4986796;28;20525;-23
2023/08/23 06:59:40;;;;;;;14.48;11.15;;;;;;;-145.33;100.00;60416.63;4986790;28;20034;-23
2023/08/23 07:02:06;;;;;;;13.18;11.85;;;;;;;-145.33;100.00;60416.63;4987001;28;20857;-22
2023/08/23 07:04:31;;;;;;;14.38;11.15;;;;;;;-145.33;100.00;60416.63;4986682;28;20026;-23
2023/08/23 07:06:57;;;;;;;15.23;11.30;;;;;;;-145.33;100.00;60416.63;4986792;28;20030;-23
2023/08/23 07:09:22;;;;;;;20.95;12.93;;;;;;;-145.33;100.00;60416.63;4986577;28;20037;-23
2023/08/23 07:11:48;;;;;;;12.68;11.07;;;;;;;-145.33;100.00;60416.63;4986840;28;20085;-26
2023/08/23 07:14:13;;;;;;;15.02;12.20;;;;;;;-145.33;100.00;60416.63;4986389;28;20026;-25
2023/08/23 07:16:39;;;;;;;14.75;12.13;;;;;;;-145.33;100.00;60416.63;4986698;28;20054;-23
2023/08/23 07:19:04;;;;;;;13.50;11.43;;;;;;;-145.33;100.00;60416.63;4986783;28;20042;-23
2023/08/23 07:21:30;;;;;;;15.05;11.10;;;;;;;-145.33;100.00;60416.63;4986292;28;20018;-24
2023/08/23 07:23:56;;;;;;;15.07;11.20;;;;;;;-145.33;100.00;60416.63;4986331;28;20026;-24
2023/08/23 07:26:21;;;;;;;13.10;10.98;;;;;;;-145.33;100.00;60416.63;4986627;28;20433;-27
2023/08/23 07:28:47;;;;;;;14.93;10.88;;;;;;;-145.33;100.00;60416.63;4986574;28;20661;-24
2023/08/23 07:31:12;;;;;;;14.30;10.48;;;;;;;-145.33;100.00;60416.63;4986389;28;20093;-23
2023/08/23 07:33:38;;;;;;;13.60;11.30;;;;;;;-145.33;100.00;60416.63;4986711;28;20510;-24
2023/08/23 07:36:04;;;;;;;12.40;11.02;;;;;;;-145.33;100.00;60416.63;4986370;28;20058;-24
2023/08/23 07:38:32;;;;;;;15.38;10.48;;;;;;;-145.33;100.00;60416.63;4986388;28;20688;-23
2023/08/23 07:40:59;;;;;;;13.90;10.90;;;;;;;-145.33;100.00;60416.63;4986001;28;20025;-24
2023/08/23 07:43:25;;;;;;;14.23;10.73;;;;;;;-145.33;100.00;60416.63;4986547;28;20089;-24
2023/08/23 07:45:54;;;;;;;12.10;10.13;;;;;;;-145.33;100.00;60416.63;4986272;28;20042;-24
2023/08/23 07:48:20;;;;;;;16.50;10.50;;;;;;;-145.33;100.00;60416.63;4986123;28;20030;-24
2023/08/23 07:51:00;;;;;;;12.80;10.30;;;;;;;-145.33;100.00;60416.63;4986196;28;20042;-26
2023/08/23 07:53:26;;;;;;;14.65;10.70;;;;;;;-145.33;100.00;60416.63;4985324;28;20046;-23
2023/08/23 07:55:54;;;;;;;12.60;10.23;;;;;;;-145.33;100.00;60416.63;4988162;28;20445;-22
2023/08/23 07:58:21;;;;;;;13.52;9.27;;;;;;;-145.33;100.00;60416.63;4990239;28;20108;-25
2023/08/23 08:00:47;;;;;;;10.88;9.88;;;;;;;-145.33;100.00;60416.63;4990114;28;20022;-23
2023/08/23 08:03:12;;;;;;;12.77;9.45;;;;;;;-145.33;100.00;60416.63;4990024;28;20775;-23
2023/08/23 08:05:38;;;;;;;15.02;9.95;;;;;;;-145.33;100.00;60416.63;4989645;28;20034;-24
2023/08/23 08:08:05;;;;;;;10.65;9.07;;;;;;;-145.33;100.00;60416.63;4989323;28;20050;-23
2023/08/23 08:10:33;;;;;;;13.20;9.77;;;;;;;-145.33;100.00;60416.63;4989187;28;20027;-23
2023/08/23 08:13:03;;;;;;;12.68;9.63;;;;;;;-145.33;100.00;60416.63;4989356;28;20041;-23
2023/08/23 08:15:29;;;;;;;12.10;9.60;;;;;;;-145.33;100.00;60416.63;4990037;28;20041;-25
2023/08/23 08:17:54;;;;;;;11.05;9.48;;;;;;;-145.33;100.00;60416.63;4989436;28;20027;-22
2023/08/23 08:20:20;;;;;;;11.32;9.23;;;;;;;-145.33;100.00;60416.63;4989801;28;20099;-23
2023/08/23 08:22:46;;;;;;;12.70;8.95;;;;;;;-145.33;100.00;60416.63;4989755;28;20030;-23
2023/08/23 08:25:14;;;;;;;10.75;9.32;;;;;;;-145.33;100.00;60416.63;4971980;28;20033;-23
2023/08/23 08:27:39;;;;;;;10.65;9.55;;;;;;;-145.33;100.00;60416.63;4988938;28;20041;-23
2023/08/23 08:30:06;;;;;;;10.75;9.38;;;;;;;-145.33;100.00;60416.63;4989352;28;20030;-24
2023/08/23 08:32:32;;;;;;;13.33;8.23;;;;;;;-145.33;100.00;60416.63;4989671;28;20072;-23
2023/08/23 08:34:58;;;;;;;10.38;8.50;;;;;;;-145.33;100.00;60416.63;4989419;28;20327;-23
2023/08/23 08:37:25;;;;;;;10.80;9.05;;;;;;;-145.33;100.00;60416.63;4989295;28;20034;-24
2023/08/23 08:39:50;;;;;;;10.65;9.50;;;;;;;-145.33;100.00;60416.63;4989695;28;20125;-22
2023/08/23 08:42:17;;;;;;;10.32;8.95;;;;;;;-145.33;100.00;60416.63;4989292;28;20113;-23
2023/08/23 08:44:44;;;;;;;9.83;8.10;;;;;;;-145.33;100.00;60416.63;4989309;28;20042;-24
2023/08/23 08:47:10;;;;;;;10.00;9.00;;;;;;;-145.33;100.00;60416.63;4988999;28;20284;-25
2023/08/23 08:49:35;;;;;;;10.48;8.88;;;;;;;-145.33;100.00;60416.63;4989021;28;20026;-23
2023/08/23 08:52:04;;;;;;;13.32;9.05;;;;;;;-145.33;100.00;60416.63;4989249;28;20433;-23
2023/08/23 08:54:34;;;;;;;10.07;7.88;;;;;;;-145.33;100.00;60416.63;4989141;28;20024;-24
2023/08/23 08:57:00;;;;;;;13.77;7.90;;;;;;;-145.33;100.00;60416.63;4989325;28;20058;-23
2023/08/23 08:59:26;;;;;;;11.23;7.85;;;;;;;-145.33;100.00;60416.63;4988941;28;20060;-23
2023/08/23 09:01:54;;;;;;;8.93;7.30;;;;;;;-145.33;100.00;60416.63;4988934;28;20434;-23
2023/08/23 09:04:20;;;;;;;10.13;7.70;;;;;;;-145.33;100.00;60416.63;4989155;28;20034;-24
2023/08/23 09:06:47;;;;;;;10.88;7.70;;;;;;;-145.33;100.00;60416.63;4988156;28;20033;-23
2023/08/23 09:09:12;;;;;;;11.82;7.55;;;;;;;-145.33;100.00;60416.63;4988940;28;20038;-23
2023/08/23 09:11:38;;;;;;;10.25;7.70;;;;;;;-145.33;100.00;60416.63;4988927;28;20038;-23
2023/08/23 09:14:17;;;;;;;9.27;7.68;;;;;;;-145.33;100.00;60416.63;4988727;28;20785;-23
2023/08/23 09:16:44;;;;;;;10.73;7.72;;;;;;;-145.33;100.00;60416.63;4989269;28;20026;-23
2023/08/23 09:19:12;;;;;;;11.52;7.63;;;;;;;-145.33;100.00;60416.63;4988799;28;20045;-23
2023/08/23 09:21:45;;;;;;;10.07;7.45;;;;;;;-145.33;100.00;60416.63;4988792;28;20034;-23
2023/08/23 09:24:11;;;;;;;10.57;7.97;;;;;;;-145.33;100.00;60416.63;4988408;28;20073;-23
2023/08/23 09:26:37;;;;;;;13.33;7.90;;;;;;;-145.33;100.00;60416.63;4988286;28;20030;-22
2023/08/23 09:29:03;;;;;;;12.07;8.55;;;;;;;-145.33;100.00;60416.63;4988284;28;20284;-23
2023/08/23 09:31:29;;;;;;;9.00;7.70;;;;;;;-145.33;100.00;60416.63;4988595;28;20034;-23
2023/08/23 09:33:54;;;;;;;11.27;7.95;;;;;;;-145.33;100.00;60416.63;4988053;28;20049;-24
2023/08/23 09:36:28;;;;;;;8.25;6.82;;;;;;;-145.33;100.00;60416.63;4988550;28;20058;-23
2023/08/23 09:38:54;;;;;;;9.63;7.53;;;;;;;-145.33;100.00;60416.63;4988249;28;20046;-24
2023/08/23 09:41:22;;;;;;;9.20;6.90;;;;;;;-145.33;100.00;60416.63;4988623;28;20058;-27
2023/08/23 09:43:52;;;;;;;8.82;7.10;;;;;;;-145.33;100.00;60416.63;4988511;28;20029;-24
2023/08/23 09:46:24;;;;;;;9.32;6.93;;;;;;;-145.33;100.00;60416.63;4987993;28;20030;-23
2023/08/23 09:48:52;;;;;;;8.63;7.07;;;;;;;-145.33;100.00;60416.63;4988134;28;20034;-24
2023/08/23 09:51:18;;;;;;;14.55;6.97;;;;;;;-145.33;100.00;60416.63;4987983;28;20880;-23
2023/08/23 09:53:51;;;;;;;8.35;6.70;;;;;;;-145.33;100.00;60416.63;4988215;28;20081;-23
2023/08/23 09:56:20;;;;;;;9.88;7.68;;;;;;;-145.33;100.00;60416.63;4988076;28;20038;-24
2023/08/23 09:58:47;;;;;;;12.48;7.07;;;;;;;-145.33;100.00;60416.63;4987913;28;20130;-27
2023/08/23 10:01:15;;;;;;;10.57;7.05;;;;;;;-145.33;100.00;60416.63;4988114;28;20061;-24
2023/08/23 10:03:41;;;;;;;8.15;7.32;;;;;;;-145.33;100.00;60416.63;4987999;28;20034;-23
2023/08/23 10:06:07;;;;;;;12.03;7.53;;;;;;;-145.33;100.00;60416.63;4987912;28;20034;-22
2023/08/23 10:08:35;;;;;;;8.77;7.32;;;;;;;-145.33;100.00;60416.63;4987745;28;20034;-23
2023/08/23 10:11:01;;;;;;;13.43;7.60;;;;;;;-145.33;100.00;60416.63;4987359;28;20030;-25
2023/08/23 10:13:29;;;;;;;9.70;7.32;;;;;;;-145.33;100.00;60416.63;4987904;28;20430;-23
2023/08/23 10:15:56;;;;;;;8.55;7.28;;;;;;;-145.33;100.00;60416.63;4987705;28;20037;-23
2023/08/23 10:18:34;;;;;;;10.85;7.25;;;;;;;-145.33;100.00;60416.63;4987699;28;20112;-23
2023/08/23 10:21:04;;;;;;;11.00;6.72;;;;;;;-145.33;100.00;60416.63;4987609;28;20139;-25
2023/08/23 10:23:34;;;;;;;12.68;7.57;;;;;;;-145.33;100.00;60416.63;4987747;28;20053;-23
2023/08/23 10:25:59;;;;;;;9.20;7.05;;;;;;;-145.33;100.00;60416.63;4987438;28;20110;-23
2023/08/23 10:28:25;;;;;;;9.82;7.68;;;;;;;-145.33;100.00;60416.63;4987557;28;20034;-23
2023/08/23 10:30:52;;;;;;;9.32;6.38;;;;;;;-145.33;100.00;60416.63;4987870;28;20030;-24
2023/08/23 10:33:18;;;;;;;;;;;;;;;-145.33;100.00;60416.63;4987898;28;20031;-24
2023/08/23 10:35:44;;;;;;;;;;;;;;;-145.33;100.00;60416.63;4987666;28;19914;-23
2023/08/23 10:38:11;;;;;;;8.32;6.43;;;;;;;-145.33;100.00;60416.63;4987327;28;19968;-23
2023/08/23 10:40:45;;;;;;;11.50;6.45;;;;;;;-145.33;100.00;60416.63;4987383;28;20045;-23
2023/08/23 10:43:11;;;;;;;7.43;6.28;;;;;;;-145.33;100.00;60416.63;4987313;28;20022;-23
2023/08/23 10:45:56;;;;;;;7.97;5.97;;;;;;;-145.33;100.00;60416.63;4987152;28;20031;-23
2023/08/23 10:48:24;;;;;;;7.47;5.82;;;;;;;-145.33;100.00;60416.63;4987142;28;20026;-23
2023/08/23 10:51:00;;;;;;;8.05;5.97;;;;;;;-145.33;100.00;60416.63;4987410;28;20026;-23
2023/08/23 10:53:30;;;;;;;8.87;5.80;;;;;;;-145.33;100.00;60416.63;4987487;28;20046;-23
2023/08/23 10:55:56;;;;;;;7.60;5.63;;;;;;;-145.33;100.00;60416.63;4987226;28;20289;-23